Terminal Aerodrome Forecast
Issued by NWS Jackson, KY

Home | Current Version | Previous Version | Text Only | Print | Product List | Glossary On
Versions: 1 2 3 4 5 6 7 8 9 10 11 12 13 14 15 16 17 18 19 20 21 22 23
000
FTUS43 KJKL 241720
TAFJKL
TAF
KJKL 241720Z 2418/2518 VRB03KT P6SM SKC
     FM250200 VRB03KT P6SM BKN080 BKN180
     FM250600 VRB03KT P6SM VCSH OVC060
     FM251000 VRB03KT 5SM -RA OVC040
     FM251500 VRB05KT 2SM RA VCTS BKN007 OVC020CB=

USA.gov is the U.S. government's official web portal to all federal, state and local government web resources and services.